sensor_id;sensor_type;location;lat;lon;timestamp;pressure;altitude;pressure_sealevel;temperature;humidity
12215;BME280;6170;42.206;24.142;2022-07-10T00:00:25;98596.94;;;20.34;67.47
12215;BME280;6170;42.206;24.142;2022-07-10T00:02:54;98595.03;;;20.50;67.02
12215;BME280;6170;42.206;24.142;2022-07-10T00:05:22;98592.88;;;20.67;66.34
12215;BME280;6170;42.206;24.142;2022-07-10T00:07:50;98595.59;;;20.52;67.07
12215;BME280;6170;42.206;24.142;2022-07-10T00:10:18;98587.16;;;20.48;67.00
12215;BME280;6170;42.206;24.142;2022-07-10T00:12:45;98586.34;;;20.63;66.47
12215;BME280;6170;42.206;24.142;2022-07-10T00:15:12;98592.34;;;20.65;66.43
12215;BME280;6170;42.206;24.142;2022-07-10T00:17:39;98590.16;;;20.72;66.01
12215;BME280;6170;42.206;24.142;2022-07-10T00:20:09;98598.88;;;20.59;66.14
12215;BME280;6170;42.206;24.142;2022-07-10T00:22:37;98590.72;;;20.74;65.50
12215;BME280;6170;42.206;24.142;2022-07-10T00:25:05;98583.34;;;20.70;65.69
12215;BME280;6170;42.206;24.142;2022-07-10T00:27:32;98581.97;;;20.72;65.39
12215;BME280;6170;42.206;24.142;2022-07-10T00:29:59;98581.72;;;20.58;65.30
12215;BME280;6170;42.206;24.142;2022-07-10T00:32:26;98582.28;;;20.66;65.13
12215;BME280;6170;42.206;24.142;2022-07-10T00:34:53;98571.66;;;20.74;65.07
12215;BME280;6170;42.206;24.142;2022-07-10T00:37:22;98574.63;;;20.42;65.39
12215;BME280;6170;42.206;24.142;2022-07-10T00:39:49;98568.63;;;20.45;65.66
12215;BME280;6170;42.206;24.142;2022-07-10T00:42:16;98574.09;;;20.50;65.42
12215;BME280;6170;42.206;24.142;2022-07-10T00:44:43;98574.63;;;20.62;65.27
12215;BME280;6170;42.206;24.142;2022-07-10T00:47:11;98566.44;;;20.32;66.16
12215;BME280;6170;42.206;24.142;2022-07-10T00:49:39;98564.56;;;20.38;65.80
12215;BME280;6170;42.206;24.142;2022-07-10T00:52:07;98558.53;;;20.26;65.88
12215;BME280;6170;42.206;24.142;2022-07-10T00:54:37;98554.75;;;20.32;65.81
12215;BME280;6170;42.206;24.142;2022-07-10T00:57:05;98546.25;;;19.98;66.88
12215;BME280;6170;42.206;24.142;2022-07-10T00:59:33;98551.41;;;20.09;66.18
12215;BME280;6170;42.206;24.142;2022-07-10T01:02:02;98546.81;;;20.00;66.77
12215;BME280;6170;42.206;24.142;2022-07-10T01:04:29;98544.63;;;20.12;66.16
12215;BME280;6170;42.206;24.142;2022-07-10T01:06:57;98543.34;;;20.30;65.78
12215;BME280;6170;42.206;24.142;2022-07-10T01:09:24;98544.66;;;20.22;65.78
12215;BME280;6170;42.206;24.142;2022-07-10T01:11:52;98537.56;;;20.16;65.88
12215;BME280;6170;42.206;24.142;2022-07-10T01:14:20;98541.66;;;20.13;66.18
12215;BME280;6170;42.206;24.142;2022-07-10T01:16:48;98540.03;;;20.28;65.79
12215;BME280;6170;42.206;24.142;2022-07-10T01:19:16;98537.28;;;20.02;66.10
12215;BME280;6170;42.206;24.142;2022-07-10T01:21:44;98530.47;;;19.95;66.56
12215;BME280;6170;42.206;24.142;2022-07-10T01:24:11;98535.38;;;20.03;66.36
12215;BME280;6170;42.206;24.142;2022-07-10T01:26:38;98535.09;;;19.99;66.71
12215;BME280;6170;42.206;24.142;2022-07-10T01:29:10;98534.50;;;19.87;67.22
12215;BME280;6170;42.206;24.142;2022-07-10T01:31:37;98527.44;;;19.76;67.12
12215;BME280;6170;42.206;24.142;2022-07-10T01:34:06;98522.31;;;19.95;67.11
12215;BME280;6170;42.206;24.142;2022-07-10T01:36:33;98517.38;;;19.77;67.26
12215;BME280;6170;42.206;24.142;2022-07-10T01:39:02;98514.88;;;19.65;68.04
12215;BME280;6170;42.206;24.142;2022-07-10T01:41:29;98511.41;;;19.85;67.86
12215;BME280;6170;42.206;24.142;2022-07-10T01:43:56;98510.28;;;19.60;68.22
12215;BME280;6170;42.206;24.142;2022-07-10T01:46:23;98504.84;;;19.70;68.33
12215;BME280;6170;42.206;24.142;2022-07-10T01:48:51;98505.69;;;19.76;68.48
12215;BME280;6170;42.206;24.142;2022-07-10T01:51:18;98508.03;;;19.52;68.95
12215;BME280;6170;42.206;24.142;2022-07-10T01:53:45;98510.75;;;19.52;69.05
12215;BME280;6170;42.206;24.142;2022-07-10T01:56:14;98512.19;;;19.70;68.65
12215;BME280;6170;42.206;24.142;2022-07-10T01:58:41;98503.47;;;19.63;68.74
12215;BME280;6170;42.206;24.142;2022-07-10T02:01:09;98503.44;;;19.53;69.06
12215;BME280;6170;42.206;24.142;2022-07-10T02:03:36;98507.78;;;19.54;69.13
12215;BME280;6170;42.206;24.142;2022-07-10T02:06:20;98503.19;;;19.69;68.53
12215;BME280;6170;42.206;24.142;2022-07-10T02:08:47;98499.63;;;19.49;69.68
12215;BME280;6170;42.206;24.142;2022-07-10T02:11:15;98499.09;;;19.57;69.06
12215;BME280;6170;42.206;24.142;2022-07-10T02:13:42;98503.19;;;19.69;69.16
12215;BME280;6170;42.206;24.142;2022-07-10T02:16:09;98498.00;;;19.58;69.24
12215;BME280;6170;42.206;24.142;2022-07-10T02:18:37;98502.66;;;19.62;69.08
12215;BME280;6170;42.206;24.142;2022-07-10T02:21:04;98498.09;;;19.16;70.70
12215;BME280;6170;42.206;24.142;2022-07-10T02:23:32;98505.53;;;19.41;69.83
12215;BME280;6170;42.206;24.142;2022-07-10T02:25:59;98510.59;;;19.22;70.46
12215;BME280;6170;42.206;24.142;2022-07-10T02:28:27;98504.63;;;19.20;70.65
12215;BME280;6170;42.206;24.142;2022-07-10T02:30:54;98507.41;;;19.35;69.82
12215;BME280;6170;42.206;24.142;2022-07-10T02:33:21;98510.25;;;19.65;68.96
12215;BME280;6170;42.206;24.142;2022-07-10T02:35:47;98503.44;;;19.58;68.92
12215;BME280;6170;42.206;24.142;2022-07-10T02:38:14;98516.97;;;19.43;69.08
12215;BME280;6170;42.206;24.142;2022-07-10T02:40:41;98507.16;;;19.37;69.42
12215;BME280;6170;42.206;24.142;2022-07-10T02:43:08;98509.69;;;19.53;69.27
12215;BME280;6170;42.206;24.142;2022-07-10T02:45:36;98513.91;;;19.34;69.89
12215;BME280;6170;42.206;24.142;2022-07-10T02:48:04;98516.09;;;19.32;69.73
12215;BME280;6170;42.206;24.142;2022-07-10T02:50:31;98501.56;;;19.58;68.76
12215;BME280;6170;42.206;24.142;2022-07-10T02:52:58;98517.22;;;19.41;69.49
12215;BME280;6170;42.206;24.142;2022-07-10T02:55:25;98516.59;;;19.24;70.40
12215;BME280;6170;42.206;24.142;2022-07-10T02:57:52;98513.84;;;19.19;70.50
12215;BME280;6170;42.206;24.142;2022-07-10T03:00:18;98516.16;;;19.42;69.97
12215;BME280;6170;42.206;24.142;2022-07-10T03:02:47;98515.69;;;19.60;69.41
12215;BME280;6170;42.206;24.142;2022-07-10T03:05:13;98514.25;;;19.43;69.63
12215;BME280;6170;42.206;24.142;2022-07-10T03:07:40;98518.16;;;19.10;70.46
12215;BME280;6170;42.206;24.142;2022-07-10T03:10:08;98526.13;;;19.26;70.33
12215;BME280;6170;42.206;24.142;2022-07-10T03:12:35;98522.84;;;19.19;70.38
12215;BME280;6170;42.206;24.142;2022-07-10T03:15:04;98526.09;;;19.21;70.51
12215;BME280;6170;42.206;24.142;2022-07-10T03:17:30;98529.06;;;19.15;70.73
12215;BME280;6170;42.206;24.142;2022-07-10T03:19:59;98523.38;;;19.21;70.69
12215;BME280;6170;42.206;24.142;2022-07-10T03:22:25;98530.56;;;19.43;70.12
12215;BME280;6170;42.206;24.142;2022-07-10T03:24:53;98531.34;;;19.38;70.42
12215;BME280;6170;42.206;24.142;2022-07-10T03:27:20;98532.06;;;19.18;71.59
12215;BME280;6170;42.206;24.142;2022-07-10T03:29:47;98532.69;;;19.36;70.71
12215;BME280;6170;42.206;24.142;2022-07-10T03:32:14;98527.69;;;19.17;71.28
12215;BME280;6170;42.206;24.142;2022-07-10T03:34:41;98534.84;;;19.39;71.08
12215;BME280;6170;42.206;24.142;2022-07-10T03:37:09;98528.47;;;19.60;70.63
12215;BME280;6170;42.206;24.142;2022-07-10T03:39:36;98528.22;;;19.71;70.15
12215;BME280;6170;42.206;24.142;2022-07-10T03:42:03;98529.28;;;19.60;70.31
12215;BME280;6170;42.206;24.142;2022-07-10T03:44:31;98533.03;;;19.49;71.00
12215;BME280;6170;42.206;24.142;2022-07-10T03:46:58;98528.28;;;19.87;70.08
12215;BME280;6170;42.206;24.142;2022-07-10T03:49:25;98523.69;;;20.02;69.60
12215;BME280;6170;42.206;24.142;2022-07-10T03:51:52;98519.75;;;19.58;70.49
12215;BME280;6170;42.206;24.142;2022-07-10T03:54:20;98529.28;;;19.60;70.92
12215;BME280;6170;42.206;24.142;2022-07-10T03:56:47;98523.03;;;19.60;70.55
12215;BME280;6170;42.206;24.142;2022-07-10T03:59:32;98521.72;;;19.83;70.19
12215;BME280;6170;42.206;24.142;2022-07-10T04:01:59;98512.69;;;19.62;70.29
12215;BME280;6170;42.206;24.142;2022-07-10T04:04:25;98528.53;;;19.80;70.50
12215;BME280;6170;42.206;24.142;2022-07-10T04:06:53;98520.59;;;19.63;70.52
12215;BME280;6170;42.206;24.142;2022-07-10T04:09:21;98514.94;;;19.80;70.22
12215;BME280;6170;42.206;24.142;2022-07-10T04:11:48;98515.25;;;20.04;69.87
12215;BME280;6170;42.206;24.142;2022-07-10T04:14:15;98505.47;;;20.08;69.12
12215;BME280;6170;42.206;24.142;2022-07-10T04:16:42;98509.00;;;20.18;69.38
12215;BME280;6170;42.206;24.142;2022-07-10T04:19:08;98510.94;;;20.33;68.62
12215;BME280;6170;42.206;24.142;2022-07-10T04:21:35;98503.59;;;20.64;67.31
12215;BME280;6170;42.206;24.142;2022-07-10T04:24:02;98508.75;;;20.71;67.03
12215;BME280;6170;42.206;24.142;2022-07-10T04:26:31;98514.69;;;21.03;66.78
12215;BME280;6170;42.206;24.142;2022-07-10T04:28:58;98514.09;;;21.21;66.60
12215;BME280;6170;42.206;24.142;2022-07-10T04:31:24;98513.31;;;21.11;66.71
12215;BME280;6170;42.206;24.142;2022-07-10T04:33:51;98509.34;;;21.52;65.40
12215;BME280;6170;42.206;24.142;2022-07-10T04:36:18;98510.38;;;21.71;64.92
12215;BME280;6170;42.206;24.142;2022-07-10T04:38:45;98509.19;;;21.82;64.17
12215;BME280;6170;42.206;24.142;2022-07-10T04:41:11;98514.56;;;22.03;63.49
12215;BME280;6170;42.206;24.142;2022-07-10T04:43:40;98515.44;;;21.93;63.73
12215;BME280;6170;42.206;24.142;2022-07-10T04:46:06;98510.25;;;21.86;63.62
